AFR31UA LFPG-EDDH
Flight info
| Callsign | AFR31UA |
|---|---|
| Flight time | 1h 18m |
| Altitude | 31000 |
| Route | NURMO DCT ADUTO N873 GRONY DCT MUBZI DCT RIBSO RIBSO7A |
| Aircraft | A320/M-SDE2E3FGIJ1RWY/HB1 |
Departure
| Time | 2026-05-07 11:12 |
|---|---|
| Airport | Charles de Gaulle International Airport (LFPG) |
Arrival
| Time | 2026-05-07 12:30 |
|---|---|
| Airport | Hamburg Helmut Schmidt Airport (EDDH) |
| Time | Latitude | Longitude | Altitude | Speed | Heading |
|---|---|---|---|---|---|
| 2026-05-07 10:39 | 49.00652 | 2.58019 | 360 ft | 0 kts | 268° |
| 2026-05-07 10:43 | 49.00652 | 2.58010 | 361 ft | 0 kts | 268° |
| 2026-05-07 10:43 | 49.00652 | 2.58011 | 361 ft | 0 kts | 268° |
| 2026-05-07 11:00 | 49.00652 | 2.58032 | 362 ft | 4 kts | 269° |
| 2026-05-07 11:00 | 49.00652 | 2.58073 | 361 ft | 4 kts | 276° |
| 2026-05-07 11:01 | 49.00647 | 2.58113 | 364 ft | 4 kts | 292° |
| 2026-05-07 11:01 | 49.00634 | 2.58141 | 363 ft | 3 kts | 347° |
| 2026-05-07 11:01 | 49.00630 | 2.58142 | 362 ft | 0 kts | 355° |
| 2026-05-07 11:03 | 49.00676 | 2.58136 | 358 ft | 12 kts | 354° |
| 2026-05-07 11:03 | 49.00773 | 2.58122 | 354 ft | 16 kts | 355° |
| 2026-05-07 11:04 | 49.00891 | 2.58106 | 360 ft | 19 kts | 354° |
| 2026-05-07 11:04 | 49.01029 | 2.58085 | 354 ft | 21 kts | 356° |
| 2026-05-07 11:04 | 49.01185 | 2.58066 | 354 ft | 24 kts | 355° |
| 2026-05-07 11:04 | 49.01360 | 2.58046 | 354 ft | 27 kts | 356° |
| 2026-05-07 11:05 | 49.01555 | 2.58022 | 354 ft | 29 kts | 355° |
| 2026-05-07 11:05 | 49.01755 | 2.57999 | 360 ft | 29 kts | 355° |
| 2026-05-07 11:05 | 49.01921 | 2.57940 | 360 ft | 24 kts | 328° |
| 2026-05-07 11:05 | 49.02001 | 2.57725 | 357 ft | 24 kts | 271° |
| 2026-05-07 11:06 | 49.01988 | 2.57460 | 360 ft | 26 kts | 265° |
| 2026-05-07 11:06 | 49.01974 | 2.57184 | 357 ft | 27 kts | 265° |
| 2026-05-07 11:06 | 49.01958 | 2.56896 | 354 ft | 28 kts | 265° |
| 2026-05-07 11:06 | 49.01943 | 2.56598 | 354 ft | 29 kts | 265° |
| 2026-05-07 11:07 | 49.01926 | 2.56298 | 360 ft | 28 kts | 265° |
| 2026-05-07 11:07 | 49.01907 | 2.55997 | 354 ft | 29 kts | 264° |
| 2026-05-07 11:07 | 49.01894 | 2.55687 | 354 ft | 30 kts | 266° |
| 2026-05-07 11:07 | 49.01877 | 2.55372 | 357 ft | 29 kts | 265° |
| 2026-05-07 11:08 | 49.01861 | 2.55065 | 354 ft | 29 kts | 265° |
| 2026-05-07 11:08 | 49.01846 | 2.54796 | 354 ft | 24 kts | 265° |
| 2026-05-07 11:08 | 49.01831 | 2.54531 | 354 ft | 26 kts | 265° |
| 2026-05-07 11:08 | 49.01817 | 2.54255 | 354 ft | 27 kts | 265° |
| 2026-05-07 11:09 | 49.01808 | 2.54066 | 354 ft | 27 kts | 265° |
| 2026-05-07 11:09 | 49.01791 | 2.53771 | 360 ft | 28 kts | 265° |
| 2026-05-07 11:09 | 49.01773 | 2.53469 | 361 ft | 28 kts | 264° |
| 2026-05-07 11:09 | 49.01757 | 2.53164 | 362 ft | 29 kts | 266° |
| 2026-05-07 11:10 | 49.01742 | 2.52863 | 362 ft | 24 kts | 264° |
| 2026-05-07 11:10 | 49.01859 | 2.52748 | 357 ft | 19 kts | 355° |
| 2026-05-07 11:10 | 49.01995 | 2.52732 | 360 ft | 20 kts | 355° |
| 2026-05-07 11:10 | 49.02089 | 2.52720 | 354 ft | 18 kts | 355° |
| 2026-05-07 11:11 | 49.02146 | 2.52839 | 356 ft | 17 kts | 84° |
| 2026-05-07 11:11 | 49.02170 | 2.53261 | 354 ft | 75 kts | 85° |
| 2026-05-07 11:11 | 49.02228 | 2.54384 | 355 ft | 135 kts | 85° |
| 2026-05-07 11:11 | 49.02323 | 2.56033 | 528 ft | 164 kts | 83° |
| 2026-05-07 11:12 | 49.02422 | 2.57740 | 1294 ft | 161 kts | 83° |
| 2026-05-07 11:12 | 49.02511 | 2.59440 | 2007 ft | 161 kts | 84° |
| 2026-05-07 11:12 | 49.02598 | 2.61131 | 2653 ft | 156 kts | 84° |
| 2026-05-07 11:12 | 49.02685 | 2.62829 | 3070 ft | 162 kts | 84° |
| 2026-05-07 11:13 | 49.02773 | 2.64528 | 3617 ft | 165 kts | 85° |
| 2026-05-07 11:13 | 49.02866 | 2.66386 | 3869 ft | 188 kts | 85° |
| 2026-05-07 11:13 | 49.02972 | 2.68478 | 4142 ft | 209 kts | 85° |
| 2026-05-07 11:13 | 49.03093 | 2.70793 | 4461 ft | 230 kts | 85° |
| 2026-05-07 11:14 | 49.03376 | 2.73269 | 4959 ft | 243 kts | 65° |
| 2026-05-07 11:14 | 49.04507 | 2.75214 | 5466 ft | 259 kts | 29° |
| 2026-05-07 11:14 | 49.06279 | 2.75942 | 6076 ft | 271 kts | 3° |
| 2026-05-07 11:14 | 49.08181 | 2.75898 | 6876 ft | 276 kts | 355° |
| 2026-05-07 11:15 | 49.10109 | 2.75624 | 7666 ft | 280 kts | 353° |
| 2026-05-07 11:15 | 49.12066 | 2.75346 | 8488 ft | 284 kts | 354° |
| 2026-05-07 11:15 | 49.14045 | 2.75143 | 9314 ft | 287 kts | 356° |
| 2026-05-07 11:15 | 49.16058 | 2.75025 | 10184 ft | 291 kts | 357° |
| 2026-05-07 11:16 | 49.18149 | 2.74967 | 10642 ft | 313 kts | 358° |
| 2026-05-07 11:16 | 49.20404 | 2.74952 | 11071 ft | 332 kts | 359° |
| 2026-05-07 11:16 | 49.22741 | 2.74968 | 11713 ft | 339 kts | 359° |
| 2026-05-07 11:16 | 49.25109 | 2.74997 | 12442 ft | 342 kts | 359° |
| 2026-05-07 11:17 | 49.27502 | 2.75028 | 13200 ft | 344 kts | 359° |
| 2026-05-07 11:17 | 49.29843 | 2.75057 | 14430 ft | 327 kts | 359° |
| 2026-05-07 11:17 | 49.32047 | 2.75086 | 15979 ft | 308 kts | 359° |
| 2026-05-07 11:17 | 49.34226 | 2.75111 | 16511 ft | 323 kts | 359° |
| 2026-05-07 11:18 | 49.36544 | 2.75129 | 16645 ft | 343 kts | 359° |
| 2026-05-07 11:18 | 49.38998 | 2.75148 | 16841 ft | 360 kts | 359° |
| 2026-05-07 11:18 | 49.41530 | 2.75166 | 17332 ft | 367 kts | 359° |
| 2026-05-07 11:18 | 49.44098 | 2.75185 | 17921 ft | 371 kts | 359° |
| 2026-05-07 11:19 | 49.46689 | 2.75207 | 18506 ft | 374 kts | 359° |
| 2026-05-07 11:19 | 49.49307 | 2.75234 | 19050 ft | 377 kts | 359° |
| 2026-05-07 11:19 | 49.51943 | 2.75260 | 19590 ft | 380 kts | 359° |
| 2026-05-07 11:19 | 49.54598 | 2.75284 | 20136 ft | 383 kts | 359° |
| 2026-05-07 11:20 | 49.57274 | 2.75305 | 20682 ft | 386 kts | 359° |
| 2026-05-07 11:20 | 49.59972 | 2.75326 | 21224 ft | 389 kts | 359° |
| 2026-05-07 11:20 | 49.62691 | 2.75352 | 21783 ft | 392 kts | 359° |
| 2026-05-07 11:20 | 49.65430 | 2.75379 | 22336 ft | 395 kts | 359° |
| 2026-05-07 11:21 | 49.68156 | 2.75407 | 22865 ft | 398 kts | 359° |
| 2026-05-07 11:21 | 49.70937 | 2.75435 | 23387 ft | 401 kts | 359° |
| 2026-05-07 11:21 | 49.73738 | 2.75458 | 23845 ft | 404 kts | 359° |
| 2026-05-07 11:21 | 49.76562 | 2.75476 | 24261 ft | 407 kts | 359° |
| 2026-05-07 11:22 | 49.79400 | 2.75548 | 24666 ft | 410 kts | 3° |
| 2026-05-07 11:22 | 49.82228 | 2.76226 | 25069 ft | 414 kts | 13° |
| 2026-05-07 11:22 | 49.84963 | 2.77671 | 25448 ft | 417 kts | 23° |
| 2026-05-07 11:22 | 49.87541 | 2.79780 | 25838 ft | 421 kts | 28° |
| 2026-05-07 11:23 | 49.90096 | 2.82011 | 26219 ft | 423 kts | 28° |
| 2026-05-07 11:23 | 49.92667 | 2.84250 | 26595 ft | 425 kts | 28° |
| 2026-05-07 11:23 | 49.95257 | 2.86501 | 26972 ft | 428 kts | 28° |
| 2026-05-07 11:23 | 49.97859 | 2.88764 | 27341 ft | 430 kts | 28° |
| 2026-05-07 11:24 | 50.00479 | 2.91044 | 27702 ft | 432 kts | 28° |
| 2026-05-07 11:24 | 50.03109 | 2.93336 | 28049 ft | 435 kts | 28° |
| 2026-05-07 11:24 | 50.05754 | 2.95649 | 28379 ft | 437 kts | 28° |
| 2026-05-07 11:24 | 50.08409 | 2.97975 | 28719 ft | 439 kts | 28° |
| 2026-05-07 11:25 | 50.11081 | 3.00318 | 29046 ft | 442 kts | 28° |
| 2026-05-07 11:25 | 50.13761 | 3.02675 | 29359 ft | 444 kts | 28° |
| 2026-05-07 11:25 | 50.16457 | 3.05049 | 29671 ft | 446 kts | 28° |
| 2026-05-07 11:25 | 50.19164 | 3.07433 | 29960 ft | 448 kts | 28° |
| 2026-05-07 11:26 | 50.21890 | 3.09839 | 30237 ft | 451 kts | 28° |
| 2026-05-07 11:26 | 50.24448 | 3.12103 | 30466 ft | 452 kts | 28° |
| 2026-05-07 11:26 | 50.27191 | 3.14532 | 30709 ft | 454 kts | 28° |
| 2026-05-07 11:26 | 50.29950 | 3.16977 | 30956 ft | 456 kts | 28° |
| 2026-05-07 11:27 | 50.32707 | 3.19424 | 31058 ft | 453 kts | 28° |
| 2026-05-07 11:27 | 50.35399 | 3.21816 | 31077 ft | 438 kts | 28° |
| 2026-05-07 11:27 | 50.40641 | 3.26466 | 31079 ft | 430 kts | 28° |
| 2026-05-07 11:28 | 50.45835 | 3.31085 | 31081 ft | 429 kts | 28° |
| 2026-05-07 11:28 | 50.51022 | 3.35719 | 31081 ft | 429 kts | 26° |
| 2026-05-07 11:29 | 50.56446 | 3.39557 | 31079 ft | 428 kts | 22° |
| 2026-05-07 11:29 | 50.61900 | 3.43300 | 31083 ft | 428 kts | 22° |
| 2026-05-07 11:30 | 50.67351 | 3.47062 | 31070 ft | 428 kts | 22° |
| 2026-05-07 11:30 | 50.72797 | 3.50832 | 31067 ft | 428 kts | 22° |
| 2026-05-07 11:31 | 50.78246 | 3.54614 | 31062 ft | 428 kts | 22° |
| 2026-05-07 11:31 | 50.83691 | 3.58406 | 31070 ft | 428 kts | 22° |
| 2026-05-07 11:32 | 50.91860 | 3.64117 | 31062 ft | 428 kts | 22° |
| 2026-05-07 11:33 | 50.97289 | 3.67975 | 31058 ft | 428 kts | 23° |
| 2026-05-07 11:33 | 51.02705 | 3.71890 | 31055 ft | 428 kts | 23° |
| 2026-05-07 11:34 | 51.08090 | 3.75780 | 31060 ft | 428 kts | 23° |
| 2026-05-07 11:34 | 51.13549 | 3.79720 | 31059 ft | 428 kts | 23° |
| 2026-05-07 11:35 | 51.18928 | 3.83614 | 31061 ft | 428 kts | 23° |
| 2026-05-07 11:35 | 51.24343 | 3.87550 | 31062 ft | 428 kts | 23° |
| 2026-05-07 11:36 | 51.29753 | 3.91498 | 31064 ft | 427 kts | 23° |
| 2026-05-07 11:36 | 51.35159 | 3.95458 | 31069 ft | 427 kts | 23° |
| 2026-05-07 11:37 | 51.40567 | 3.99428 | 31074 ft | 427 kts | 23° |
| 2026-05-07 11:37 | 51.45965 | 4.03414 | 31077 ft | 428 kts | 24° |
| 2026-05-07 11:38 | 51.51369 | 4.07414 | 31085 ft | 427 kts | 24° |
| 2026-05-07 11:38 | 51.56770 | 4.11405 | 31085 ft | 427 kts | 24° |
| 2026-05-07 11:39 | 51.62163 | 4.15413 | 31083 ft | 427 kts | 24° |
| 2026-05-07 11:39 | 51.67555 | 4.19431 | 31080 ft | 427 kts | 24° |
| 2026-05-07 11:40 | 51.72944 | 4.23449 | 31073 ft | 427 kts | 24° |
| 2026-05-07 11:40 | 51.78326 | 4.27474 | 31083 ft | 426 kts | 24° |
| 2026-05-07 11:41 | 51.83704 | 4.31517 | 31084 ft | 426 kts | 24° |
| 2026-05-07 11:41 | 51.89074 | 4.35570 | 31085 ft | 426 kts | 24° |
| 2026-05-07 11:42 | 51.94445 | 4.39619 | 31082 ft | 426 kts | 24° |
| 2026-05-07 11:42 | 51.99812 | 4.43680 | 31091 ft | 425 kts | 24° |
| 2026-05-07 11:43 | 52.05167 | 4.47752 | 31083 ft | 425 kts | 24° |
| 2026-05-07 11:43 | 52.10517 | 4.51828 | 31083 ft | 424 kts | 24° |
| 2026-05-07 11:44 | 52.15862 | 4.55909 | 31074 ft | 424 kts | 25° |
| 2026-05-07 11:44 | 52.21165 | 4.59983 | 31081 ft | 424 kts | 25° |
| 2026-05-07 11:45 | 52.26482 | 4.64074 | 31095 ft | 422 kts | 25° |
| 2026-05-07 11:45 | 52.31784 | 4.68142 | 31094 ft | 420 kts | 25° |
| 2026-05-07 11:46 | 52.37070 | 4.72207 | 31097 ft | 419 kts | 25° |
| 2026-05-07 11:46 | 52.42342 | 4.76282 | 31092 ft | 419 kts | 25° |
| 2026-05-07 11:47 | 52.47594 | 4.80357 | 31110 ft | 416 kts | 26° |
| 2026-05-07 11:47 | 52.52710 | 4.84717 | 31109 ft | 413 kts | 36° |
| 2026-05-07 11:48 | 52.56822 | 4.91178 | 31101 ft | 409 kts | 52° |
| 2026-05-07 11:48 | 52.60345 | 4.98532 | 31097 ft | 409 kts | 52° |
| 2026-05-07 11:49 | 52.63874 | 5.05891 | 31062 ft | 411 kts | 52° |
| 2026-05-07 11:49 | 52.67411 | 5.13298 | 31079 ft | 411 kts | 52° |
| 2026-05-07 11:50 | 52.70932 | 5.20692 | 31100 ft | 409 kts | 52° |
| 2026-05-07 11:50 | 52.74427 | 5.28071 | 31108 ft | 407 kts | 52° |
| 2026-05-07 11:51 | 52.77909 | 5.35435 | 31100 ft | 406 kts | 52° |
| 2026-05-07 11:51 | 52.81387 | 5.42789 | 31096 ft | 406 kts | 52° |
| 2026-05-07 11:52 | 52.84851 | 5.50156 | 31083 ft | 405 kts | 52° |
| 2026-05-07 11:52 | 52.88305 | 5.57530 | 31081 ft | 405 kts | 52° |
| 2026-05-07 11:53 | 52.91759 | 5.64903 | 31080 ft | 405 kts | 52° |
| 2026-05-07 11:53 | 52.95203 | 5.72301 | 31076 ft | 405 kts | 52° |
| 2026-05-07 11:54 | 52.98643 | 5.79704 | 31076 ft | 405 kts | 52° |
| 2026-05-07 11:54 | 53.02081 | 5.87105 | 31074 ft | 405 kts | 53° |
| 2026-05-07 11:55 | 53.05512 | 5.94522 | 31074 ft | 404 kts | 53° |
| 2026-05-07 11:55 | 53.08900 | 6.01907 | 31070 ft | 404 kts | 55° |
| 2026-05-07 11:56 | 53.11320 | 6.10282 | 31073 ft | 403 kts | 74° |
| 2026-05-07 11:56 | 53.12748 | 6.19312 | 31074 ft | 403 kts | 75° |
| 2026-05-07 11:57 | 53.14185 | 6.28345 | 31071 ft | 403 kts | 75° |
| 2026-05-07 11:57 | 53.15387 | 6.35913 | 31071 ft | 403 kts | 75° |
| 2026-05-07 11:58 | 53.16811 | 6.44959 | 31073 ft | 404 kts | 75° |
| 2026-05-07 11:58 | 53.18223 | 6.54010 | 31081 ft | 404 kts | 75° |
| 2026-05-07 11:59 | 53.19631 | 6.63072 | 31076 ft | 403 kts | 75° |
| 2026-05-07 11:59 | 53.21030 | 6.72144 | 31061 ft | 405 kts | 75° |
| 2026-05-07 12:00 | 53.22434 | 6.81286 | 31048 ft | 408 kts | 75° |
| 2026-05-07 12:00 | 53.23828 | 6.90412 | 31051 ft | 409 kts | 76° |
| 2026-05-07 12:01 | 53.25232 | 6.99636 | 31059 ft | 410 kts | 76° |
| 2026-05-07 12:01 | 53.26632 | 7.08889 | 31061 ft | 411 kts | 76° |
| 2026-05-07 12:02 | 53.28024 | 7.18152 | 31062 ft | 411 kts | 76° |
| 2026-05-07 12:02 | 53.29992 | 7.27117 | 31054 ft | 413 kts | 66° |
| 2026-05-07 12:03 | 53.32285 | 7.35938 | 31049 ft | 415 kts | 66° |
| 2026-05-07 12:03 | 53.34588 | 7.44806 | 31054 ft | 416 kts | 66° |
| 2026-05-07 12:04 | 53.36888 | 7.53705 | 31053 ft | 417 kts | 66° |
| 2026-05-07 12:04 | 53.39202 | 7.62697 | 31078 ft | 428 kts | 66° |
| 2026-05-07 12:05 | 53.41594 | 7.72073 | 31078 ft | 443 kts | 67° |
| 2026-05-07 12:05 | 53.42792 | 7.76789 | 30731 ft | 437 kts | 67° |
| 2026-05-07 12:05 | 53.43982 | 7.81475 | 30119 ft | 435 kts | 67° |
| 2026-05-07 12:05 | 53.45163 | 7.86124 | 29467 ft | 432 kts | 67° |
| 2026-05-07 12:06 | 53.46337 | 7.90744 | 28844 ft | 429 kts | 67° |
| 2026-05-07 12:06 | 53.47499 | 7.95326 | 28273 ft | 425 kts | 67° |
| 2026-05-07 12:06 | 53.48649 | 7.99863 | 27728 ft | 420 kts | 67° |
| 2026-05-07 12:06 | 53.49782 | 8.04355 | 27210 ft | 415 kts | 67° |
| 2026-05-07 12:07 | 53.50899 | 8.08810 | 26644 ft | 413 kts | 67° |
| 2026-05-07 12:07 | 53.52006 | 8.13231 | 26119 ft | 409 kts | 67° |
| 2026-05-07 12:07 | 53.53107 | 8.17633 | 25563 ft | 407 kts | 67° |
| 2026-05-07 12:07 | 53.54200 | 8.22002 | 25068 ft | 404 kts | 67° |
| 2026-05-07 12:08 | 53.55285 | 8.26344 | 24544 ft | 402 kts | 67° |
| 2026-05-07 12:08 | 53.56365 | 8.30667 | 24071 ft | 399 kts | 67° |
| 2026-05-07 12:08 | 53.57435 | 8.34958 | 23559 ft | 397 kts | 67° |
| 2026-05-07 12:08 | 53.58499 | 8.39240 | 22994 ft | 395 kts | 67° |
| 2026-05-07 12:09 | 53.59552 | 8.43491 | 22493 ft | 392 kts | 67° |
| 2026-05-07 12:09 | 53.60592 | 8.47713 | 21967 ft | 390 kts | 67° |
| 2026-05-07 12:09 | 53.61621 | 8.51912 | 21515 ft | 386 kts | 67° |
| 2026-05-07 12:09 | 53.62642 | 8.56073 | 20914 ft | 382 kts | 67° |
| 2026-05-07 12:10 | 53.63640 | 8.60133 | 20253 ft | 378 kts | 67° |
| 2026-05-07 12:10 | 53.64638 | 8.64198 | 19586 ft | 374 kts | 67° |
| 2026-05-07 12:10 | 53.65624 | 8.68229 | 18935 ft | 370 kts | 67° |
| 2026-05-07 12:10 | 53.66597 | 8.72222 | 18312 ft | 366 kts | 67° |
| 2026-05-07 12:11 | 53.67558 | 8.76176 | 17612 ft | 362 kts | 67° |
| 2026-05-07 12:11 | 53.68504 | 8.80059 | 17142 ft | 353 kts | 67° |
| 2026-05-07 12:11 | 53.69423 | 8.83832 | 16725 ft | 344 kts | 67° |
| 2026-05-07 12:11 | 53.70320 | 8.87519 | 16310 ft | 335 kts | 67° |
| 2026-05-07 12:12 | 53.71193 | 8.91122 | 16077 ft | 331 kts | 68° |
| 2026-05-07 12:12 | 53.72052 | 8.94719 | 16079 ft | 331 kts | 68° |
| 2026-05-07 12:12 | 53.72906 | 8.98333 | 16083 ft | 331 kts | 68° |
| 2026-05-07 12:12 | 53.73758 | 9.01956 | 15851 ft | 334 kts | 68° |
| 2026-05-07 12:13 | 53.74625 | 9.05648 | 14818 ft | 341 kts | 68° |
| 2026-05-07 12:13 | 53.75503 | 9.09364 | 14016 ft | 339 kts | 68° |
| 2026-05-07 12:13 | 53.76383 | 9.13079 | 13537 ft | 338 kts | 68° |
| 2026-05-07 12:13 | 53.77249 | 9.16752 | 13072 ft | 336 kts | 68° |
| 2026-05-07 12:14 | 53.78101 | 9.20400 | 12646 ft | 333 kts | 68° |
| 2026-05-07 12:14 | 53.78943 | 9.24018 | 12268 ft | 328 kts | 68° |
| 2026-05-07 12:14 | 53.79777 | 9.27609 | 11859 ft | 325 kts | 69° |
| 2026-05-07 12:14 | 53.80302 | 9.31310 | 11412 ft | 323 kts | 85° |
| 2026-05-07 12:15 | 53.80173 | 9.35076 | 10965 ft | 321 kts | 102° |
| 2026-05-07 12:15 | 53.79415 | 9.38577 | 10687 ft | 315 kts | 118° |
| 2026-05-07 12:15 | 53.78243 | 9.41646 | 10442 ft | 307 kts | 123° |
| 2026-05-07 12:15 | 53.76925 | 9.44406 | 10254 ft | 298 kts | 140° |
| 2026-05-07 12:16 | 53.75151 | 9.46077 | 10021 ft | 292 kts | 163° |
| 2026-05-07 12:16 | 53.73150 | 9.46325 | 9718 ft | 288 kts | 189° |
| 2026-05-07 12:16 | 53.71310 | 9.45205 | 9584 ft | 278 kts | 208° |
| 2026-05-07 12:16 | 53.69587 | 9.43912 | 9445 ft | 266 kts | 190° |
| 2026-05-07 12:17 | 53.67791 | 9.43828 | 9262 ft | 255 kts | 168° |
| 2026-05-07 12:17 | 53.66094 | 9.44553 | 9095 ft | 251 kts | 163° |
| 2026-05-07 12:17 | 53.64407 | 9.45286 | 8931 ft | 250 kts | 163° |
| 2026-05-07 12:17 | 53.62714 | 9.45971 | 8764 ft | 250 kts | 164° |
| 2026-05-07 12:18 | 53.61023 | 9.46639 | 8604 ft | 249 kts | 165° |
| 2026-05-07 12:18 | 53.59334 | 9.47303 | 8434 ft | 249 kts | 163° |
| 2026-05-07 12:18 | 53.57652 | 9.47964 | 8275 ft | 248 kts | 165° |
| 2026-05-07 12:18 | 53.55972 | 9.48626 | 8110 ft | 248 kts | 164° |
| 2026-05-07 12:19 | 53.54296 | 9.49286 | 7950 ft | 247 kts | 163° |
| 2026-05-07 12:19 | 53.52624 | 9.49936 | 7785 ft | 247 kts | 166° |
| 2026-05-07 12:19 | 53.50906 | 9.49972 | 7621 ft | 250 kts | 188° |
| 2026-05-07 12:19 | 53.49280 | 9.48917 | 7454 ft | 254 kts | 211° |
| 2026-05-07 12:20 | 53.47985 | 9.46907 | 7284 ft | 255 kts | 230° |
| 2026-05-07 12:20 | 53.46847 | 9.44613 | 7111 ft | 256 kts | 229° |
| 2026-05-07 12:20 | 53.45704 | 9.42334 | 6930 ft | 255 kts | 229° |
| 2026-05-07 12:20 | 53.44558 | 9.40062 | 6749 ft | 256 kts | 228° |
| 2026-05-07 12:21 | 53.43391 | 9.37821 | 6501 ft | 254 kts | 221° |
| 2026-05-07 12:21 | 53.41892 | 9.36399 | 6298 ft | 247 kts | 189° |
| 2026-05-07 12:21 | 53.40224 | 9.36387 | 6115 ft | 237 kts | 160° |
| 2026-05-07 12:21 | 53.38804 | 9.37641 | 5934 ft | 229 kts | 136° |
| 2026-05-07 12:22 | 53.37587 | 9.39370 | 5766 ft | 229 kts | 136° |
| 2026-05-07 12:22 | 53.36559 | 9.41342 | 5580 ft | 223 kts | 112° |
| 2026-05-07 12:22 | 53.36269 | 9.43833 | 5418 ft | 219 kts | 83° |
| 2026-05-07 12:22 | 53.36783 | 9.46197 | 5262 ft | 219 kts | 55° |
| 2026-05-07 12:23 | 53.37758 | 9.48172 | 5104 ft | 220 kts | 51° |
| 2026-05-07 12:23 | 53.38746 | 9.50124 | 4953 ft | 219 kts | 52° |
| 2026-05-07 12:23 | 53.39731 | 9.52074 | 4795 ft | 219 kts | 52° |
| 2026-05-07 12:23 | 53.40711 | 9.54022 | 4654 ft | 219 kts | 52° |
| 2026-05-07 12:24 | 53.41694 | 9.55976 | 4504 ft | 220 kts | 52° |
| 2026-05-07 12:24 | 53.42678 | 9.57936 | 4371 ft | 219 kts | 51° |
| 2026-05-07 12:24 | 53.43659 | 9.59890 | 4230 ft | 219 kts | 51° |
| 2026-05-07 12:24 | 53.44640 | 9.61847 | 4098 ft | 219 kts | 51° |
| 2026-05-07 12:25 | 53.45619 | 9.63801 | 3947 ft | 219 kts | 51° |
| 2026-05-07 12:25 | 53.46592 | 9.65761 | 3819 ft | 218 kts | 52° |
| 2026-05-07 12:25 | 53.47561 | 9.67716 | 3671 ft | 218 kts | 51° |
| 2026-05-07 12:25 | 53.48534 | 9.69667 | 3536 ft | 217 kts | 51° |
| 2026-05-07 12:26 | 53.49507 | 9.71613 | 3397 ft | 218 kts | 51° |
| 2026-05-07 12:26 | 53.50485 | 9.73569 | 3258 ft | 219 kts | 51° |
| 2026-05-07 12:26 | 53.51464 | 9.75528 | 3119 ft | 219 kts | 51° |
| 2026-05-07 12:26 | 53.52440 | 9.77484 | 2987 ft | 220 kts | 51° |
| 2026-05-07 12:27 | 53.53416 | 9.79442 | 2725 ft | 218 kts | 51° |
| 2026-05-07 12:27 | 53.54375 | 9.81365 | 2433 ft | 216 kts | 51° |
| 2026-05-07 12:27 | 53.55350 | 9.83324 | 2133 ft | 214 kts | 52° |
| 2026-05-07 12:27 | 53.56271 | 9.85175 | 1881 ft | 204 kts | 52° |
| 2026-05-07 12:28 | 53.57157 | 9.86956 | 1575 ft | 190 kts | 51° |
| 2026-05-07 12:28 | 53.57971 | 9.88594 | 1321 ft | 175 kts | 52° |
| 2026-05-07 12:28 | 53.58712 | 9.90087 | 1088 ft | 159 kts | 51° |
| 2026-05-07 12:28 | 53.59386 | 9.91446 | 898 ft | 144 kts | 51° |
| 2026-05-07 12:29 | 53.60008 | 9.92700 | 691 ft | 135 kts | 51° |
| 2026-05-07 12:29 | 53.60601 | 9.93900 | 509 ft | 133 kts | 53° |
| 2026-05-07 12:29 | 53.61195 | 9.95101 | 352 ft | 133 kts | 55° |
| 2026-05-07 12:29 | 53.61779 | 9.96273 | 125 ft | 128 kts | 52° |
| 2026-05-07 12:30 | 53.62328 | 9.97384 | 41 ft | 113 kts | 52° |
| 2026-05-07 12:30 | 53.62721 | 9.98189 | 42 ft | 64 kts | 51° |
| 2026-05-07 12:30 | 53.62925 | 9.98599 | 45 ft | 38 kts | 51° |
| 2026-05-07 12:30 | 53.63063 | 9.98892 | 46 ft | 25 kts | 59° |
| 2026-05-07 12:31 | 53.63093 | 9.99135 | 46 ft | 19 kts | 94° |
| 2026-05-07 12:31 | 53.63092 | 9.99337 | 47 ft | 17 kts | 75° |
| 2026-05-07 12:31 | 53.63147 | 9.99520 | 46 ft | 18 kts | 52° |
| 2026-05-07 12:31 | 53.63215 | 9.99657 | 48 ft | 5 kts | 50° |
| 2026-05-07 12:32 | 53.63221 | 9.99670 | 48 ft | 0 kts | 50° |
| 2026-05-07 12:32 | 53.63229 | 9.99685 | 48 ft | 6 kts | 49° |
| 2026-05-07 12:33 | 53.63361 | 9.99931 | 48 ft | 18 kts | 48° |
| 2026-05-07 12:33 | 53.63430 | 10.00103 | 48 ft | 17 kts | 94° |
| 2026-05-07 12:33 | 53.63371 | 10.00240 | 48 ft | 11 kts | 124° |
| 2026-05-07 12:34 | 53.63373 | 10.00337 | 48 ft | 2 kts | 87° |
| 2026-05-07 12:34 | 53.63373 | 10.00350 | 48 ft | 1 kts | 86° |